createdAt,value
2023-01-11T00:01:22.244Z,79.40
2023-01-11T00:03:49.369Z,80.50
2023-01-11T00:06:16.209Z,80.20
2023-01-11T00:08:43.020Z,80.10
2023-01-11T00:11:15.709Z,79.90
2023-01-11T00:13:45.172Z,79.60
2023-01-11T00:16:12.712Z,80.60
2023-01-11T00:18:40.967Z,80.10
2023-01-11T00:21:08.980Z,80.10
2023-01-11T00:23:37.827Z,80.30
2023-01-11T00:26:12.840Z,80.50
2023-01-11T00:28:39.822Z,79.70
2023-01-11T00:31:06.708Z,80.50
2023-01-11T00:33:33.511Z,80.40
2023-01-11T00:36:00.428Z,80.50
2023-01-11T00:38:45.726Z,80.40
2023-01-11T00:41:34.401Z,80.40
2023-01-11T00:44:19.980Z,80.10
2023-01-11T00:47:05.376Z,80.40
2023-01-11T00:49:32.690Z,80.40
2023-01-11T00:52:01.429Z,80.20
2023-01-11T00:54:28.267Z,80.10
2023-01-11T00:56:55.063Z,80.20
2023-01-11T00:59:22.088Z,80.10
2023-01-11T01:01:48.987Z,80.20
2023-01-11T01:04:15.847Z,80.30
2023-01-11T01:06:42.738Z,80.20
2023-01-11T01:09:09.716Z,80.10
2023-01-11T01:11:36.598Z,80.20
2023-01-11T01:14:22.389Z,80.00
2023-01-11T01:16:49.762Z,80.00
2023-01-11T01:19:16.690Z,80.00
2023-01-11T01:21:43.715Z,80.00
2023-01-11T01:24:10.929Z,80.10
2023-01-11T01:26:37.815Z,80.00
2023-01-11T01:29:04.768Z,79.90
2023-01-11T01:31:31.676Z,80.00
2023-01-11T01:33:58.864Z,79.80
2023-01-11T01:36:26.075Z,79.70
2023-01-11T01:38:52.848Z,79.60
2023-01-11T01:41:19.691Z,79.50
2023-01-11T01:43:55.324Z,79.70
2023-01-11T01:46:27.721Z,77.40
2023-01-11T01:49:20.722Z,79.00
2023-01-11T01:51:57.093Z,74.40
2023-01-11T01:54:34.941Z,77.00
2023-01-11T01:57:26.843Z,78.50
2023-01-11T01:59:58.070Z,75.20
2023-01-11T02:02:26.476Z,78.80
2023-01-11T02:04:57.361Z,79.00
2023-01-11T02:07:32.085Z,79.10
2023-01-11T02:10:09.933Z,75.90
2023-01-11T02:13:02.655Z,78.90
2023-01-11T02:15:29.785Z,76.90
2023-01-11T02:17:56.664Z,79.60
2023-01-11T02:20:50.697Z,79.80
2023-01-11T02:23:36.619Z,78.50
2023-01-11T02:27:00.664Z,79.30
2023-01-11T02:29:48.652Z,78.40
2023-01-11T02:32:48.895Z,79.80
2023-01-11T02:35:48.478Z,79.60
2023-01-11T02:38:33.740Z,79.90
2023-01-11T02:42:07.050Z,80.00
2023-01-11T02:45:04.021Z,80.00
2023-01-11T02:47:49.915Z,81.00
2023-01-11T02:50:27.366Z,80.00
2023-01-11T02:53:21.373Z,81.50
2023-01-11T02:55:55.868Z,81.50
2023-01-11T02:58:29.427Z,82.00
2023-01-11T03:00:58.526Z,82.00
2023-01-11T03:03:29.531Z,82.30
2023-01-11T03:06:18.413Z,82.50
2023-01-11T03:09:20.256Z,82.10
2023-01-11T03:12:24.411Z,82.00
2023-01-11T03:15:05.794Z,83.20
2023-01-11T03:18:23.144Z,82.50
2023-01-11T03:21:27.805Z,81.60
2023-01-11T03:24:09.712Z,82.90
2023-01-11T03:26:53.972Z,82.30
2023-01-11T03:29:37.043Z,83.20
2023-01-11T03:32:28.350Z,82.90
2023-01-11T03:35:23.842Z,82.40
2023-01-11T03:38:16.717Z,81.90
2023-01-11T03:40:53.064Z,82.40
2023-01-11T03:43:24.562Z,83.10
2023-01-11T03:46:26.962Z,83.10
2023-01-11T03:49:09.326Z,82.80
2023-01-11T03:51:43.801Z,82.50
2023-01-11T03:54:22.104Z,82.80
2023-01-11T03:57:19.848Z,82.90
2023-01-11T03:59:47.220Z,81.60
2023-01-11T04:02:21.554Z,83.00
2023-01-11T04:04:48.654Z,82.70
2023-01-11T04:07:15.994Z,83.10
2023-01-11T04:09:43.042Z,83.40
2023-01-11T04:12:09.951Z,83.70
2023-01-11T04:14:37.481Z,83.90
2023-01-11T04:17:05.224Z,84.10
2023-01-11T04:19:32.114Z,84.20
2023-01-11T04:21:58.967Z,84.20
2023-01-11T04:24:25.844Z,84.30
2023-01-11T04:26:52.680Z,84.20
2023-01-11T04:29:19.525Z,84.20
2023-01-11T04:31:46.444Z,84.20
2023-01-11T04:34:13.357Z,84.70
2023-01-11T04:36:40.294Z,84.20
2023-01-11T04:39:10.584Z,84.20
2023-01-11T04:41:57.282Z,84.10
2023-01-11T04:44:24.655Z,84.00
2023-01-11T04:46:51.759Z,84.20
2023-01-11T04:49:18.581Z,84.40
2023-01-11T04:51:45.516Z,84.40
2023-01-11T04:54:12.546Z,84.50
2023-01-11T04:56:39.389Z,84.60
2023-01-11T04:59:06.226Z,84.60
2023-01-11T05:01:33.136Z,84.80
2023-01-11T05:04:00.003Z,84.70
2023-01-11T05:06:26.987Z,84.80
2023-01-11T05:08:53.858Z,84.80
2023-01-11T05:11:20.894Z,84.80
2023-01-11T05:13:47.804Z,84.80
2023-01-11T05:16:20.375Z,84.80
2023-01-11T05:18:58.513Z,84.50
2023-01-11T05:21:31.253Z,84.00
2023-01-11T05:24:01.054Z,84.50
2023-01-11T05:26:34.616Z,84.50
2023-01-11T05:29:06.702Z,84.50
2023-01-11T05:31:35.857Z,84.60
2023-01-11T05:34:02.894Z,84.70
2023-01-11T05:36:29.818Z,84.70
2023-01-11T05:38:57.414Z,84.60
2023-01-11T05:41:27.050Z,84.60
2023-01-11T05:44:13.764Z,84.70
2023-01-11T05:46:43.219Z,84.80
2023-01-11T05:49:13.352Z,84.70
2023-01-11T05:51:42.000Z,84.80
2023-01-11T05:54:13.798Z,85.00
2023-01-11T05:56:44.570Z,84.80
2023-01-11T05:59:12.162Z,85.00
2023-01-11T06:01:39.262Z,85.00
2023-01-11T06:04:06.486Z,85.10
2023-01-11T06:06:33.656Z,85.10
2023-01-11T06:09:00.721Z,85.10
2023-01-11T06:11:27.678Z,85.00
2023-01-11T06:13:54.619Z,85.10
2023-01-11T06:16:22.383Z,84.90
2023-01-11T06:18:52.891Z,84.90
2023-01-11T06:21:20.742Z,84.80
2023-01-11T06:23:53.232Z,84.80
2023-01-11T06:26:22.512Z,84.80
2023-01-11T06:28:50.020Z,84.80
2023-01-11T06:31:18.266Z,84.70
2023-01-11T06:33:46.977Z,84.80
2023-01-11T06:36:15.999Z,84.80
2023-01-11T06:38:43.779Z,84.80
2023-01-11T06:41:12.519Z,84.80
2023-01-11T06:43:41.880Z,84.80
2023-01-11T06:46:15.238Z,84.70
2023-01-11T06:48:43.407Z,83.90
2023-01-11T06:51:11.960Z,84.30
2023-01-11T06:53:40.065Z,84.50
2023-01-11T06:56:07.917Z,84.60
2023-01-11T06:58:34.789Z,84.70
2023-01-11T07:01:01.807Z,84.80
2023-01-11T07:03:28.946Z,84.80
2023-01-11T07:05:58.016Z,85.00
2023-01-11T07:08:26.069Z,85.00
2023-01-11T07:10:53.772Z,85.60
2023-01-11T07:13:21.482Z,85.30
2023-01-11T07:15:50.946Z,85.30
2023-01-11T07:18:19.232Z,85.10
2023-01-11T07:20:46.845Z,85.10
2023-01-11T07:23:14.433Z,85.00
2023-01-11T07:25:41.447Z,85.10
2023-01-11T07:28:09.717Z,85.50
2023-01-11T07:30:56.091Z,84.90
2023-01-11T07:33:25.307Z,84.90
2023-01-11T07:35:52.868Z,85.10
2023-01-11T07:38:19.802Z,85.20
2023-01-11T07:40:47.763Z,85.20
2023-01-11T07:43:15.454Z,85.30
2023-01-11T07:45:49.569Z,85.20
2023-01-11T07:48:24.562Z,84.60
2023-01-11T07:50:52.578Z,85.10
2023-01-11T07:53:19.799Z,85.10
2023-01-11T07:55:47.292Z,85.00
2023-01-11T07:58:15.141Z,85.00
2023-01-11T08:00:42.452Z,85.10
2023-01-11T08:03:09.992Z,85.10
2023-01-11T08:05:37.444Z,85.10
2023-01-11T08:08:05.425Z,85.00
2023-01-11T08:10:33.096Z,84.70
2023-01-11T08:13:18.763Z,84.50
2023-01-11T08:15:45.991Z,84.40
2023-01-11T08:18:14.165Z,84.50
2023-01-11T08:20:41.554Z,84.40
2023-01-11T08:23:10.673Z,84.30
2023-01-11T08:25:38.077Z,84.30
2023-01-11T08:28:07.497Z,84.60
2023-01-11T08:30:35.797Z,84.50
2023-01-11T08:33:03.763Z,84.70
2023-01-11T08:35:32.517Z,84.60
2023-01-11T08:37:59.385Z,84.60
2023-01-11T08:40:26.286Z,84.80
2023-01-11T08:42:57.176Z,85.00
2023-01-11T08:45:25.265Z,84.70
2023-01-11T08:47:52.633Z,85.30
2023-01-11T08:50:22.093Z,85.50
2023-01-11T08:52:51.457Z,85.50
2023-01-11T08:55:19.600Z,85.60
2023-01-11T08:57:47.163Z,85.70
2023-01-11T09:00:15.239Z,85.70
2023-01-11T09:02:42.224Z,85.60
2023-01-11T09:05:09.712Z,85.70
2023-01-11T09:07:36.652Z,85.70
2023-01-11T09:10:04.256Z,85.70
2023-01-11T09:12:32.670Z,86.10
2023-01-11T09:15:00.089Z,85.70
2023-01-11T09:17:27.079Z,86.00
2023-01-11T09:19:53.973Z,86.40
2023-01-11T09:22:20.830Z,86.50
2023-01-11T09:24:47.709Z,86.70
2023-01-11T09:27:14.715Z,86.90
2023-01-11T09:29:41.584Z,87.00
2023-01-11T09:32:08.445Z,86.70
2023-01-11T09:34:35.954Z,86.70
2023-01-11T09:37:06.637Z,86.40
2023-01-11T09:39:34.971Z,85.70
2023-01-11T09:42:31.488Z,85.60
2023-01-11T09:45:28.409Z,79.60
2023-01-11T09:48:12.976Z,80.60
2023-01-11T09:50:45.707Z,83.00
2023-01-11T09:53:34.734Z,84.00
2023-01-11T09:56:11.956Z,81.20
2023-01-11T09:59:38.571Z,85.00
2023-01-11T10:02:45.613Z,79.50
2023-01-11T10:05:36.943Z,80.70
2023-01-11T10:18:22.197Z,82.40
2023-01-11T10:18:39.685Z,79.70
2023-01-11T10:21:37.528Z,80.00
2023-01-11T10:24:30.840Z,77.50
2023-01-11T10:27:03.818Z,77.70
2023-01-11T10:30:04.074Z,85.00
2023-01-11T10:32:47.914Z,80.60
2023-01-11T10:35:47.830Z,81.80
2023-01-11T10:38:59.154Z,82.80
2023-01-11T10:41:52.307Z,80.40
2023-01-11T10:45:00.263Z,78.20
2023-01-11T10:47:51.218Z,78.30
2023-01-11T10:50:28.373Z,76.00
2023-01-11T10:53:19.069Z,78.20
2023-01-11T10:56:06.015Z,80.30
2023-01-11T10:59:16.891Z,79.00
2023-01-11T11:02:07.165Z,76.30
2023-01-11T11:04:45.845Z,76.90
2023-01-11T11:07:34.716Z,79.50
2023-01-11T11:10:29.682Z,78.30
2023-01-11T11:13:17.333Z,81.00
2023-01-11T11:16:13.131Z,77.70
2023-01-11T11:18:41.742Z,76.40
2023-01-11T11:21:38.435Z,83.40
2023-01-11T11:24:32.333Z,80.60
2023-01-11T11:27:30.129Z,75.60
2023-01-11T11:29:57.264Z,75.40
2023-01-11T11:32:42.703Z,82.50
2023-01-11T11:35:39.779Z,76.90
2023-01-11T11:38:07.240Z,76.80
2023-01-11T11:40:38.006Z,82.60
2023-01-11T11:43:16.431Z,82.00
2023-01-11T11:46:02.453Z,76.70
2023-01-11T11:48:33.621Z,76.70
2023-01-11T11:51:05.840Z,81.60
2023-01-11T11:53:43.106Z,81.00
2023-01-11T11:56:23.178Z,78.60
2023-01-11T11:58:51.210Z,77.10
2023-01-11T12:01:27.596Z,81.10
2023-01-11T12:04:03.645Z,79.70
2023-01-11T12:06:31.000Z,78.20
2023-01-11T12:09:02.526Z,80.50
2023-01-11T12:11:35.037Z,79.80
2023-01-11T12:14:10.784Z,79.10
2023-01-11T12:16:43.995Z,75.80
2023-01-11T12:19:42.658Z,79.20
2023-01-11T12:22:21.751Z,73.70
2023-01-11T12:25:28.779Z,75.90
2023-01-11T12:28:08.319Z,73.40
2023-01-11T12:31:02.489Z,76.90
2023-01-11T12:33:44.414Z,76.50
2023-01-11T12:36:36.268Z,77.00
2023-01-11T12:39:49.768Z,80.50
2023-01-11T12:42:37.661Z,74.50
2023-01-11T12:45:49.979Z,79.40
2023-01-11T12:48:51.067Z,74.10
2023-01-11T12:51:44.956Z,73.90
2023-01-11T12:55:12.596Z,75.30
2023-01-11T12:58:05.036Z,73.90
2023-01-11T13:00:59.148Z,75.60
2023-01-11T13:04:02.760Z,75.30
2023-01-11T13:06:53.719Z,75.20
2023-01-11T13:09:43.956Z,79.20
2023-01-11T13:12:18.739Z,76.60
2023-01-11T13:15:12.844Z,80.50
2023-01-11T13:18:04.502Z,76.10
2023-01-11T13:21:11.375Z,79.40
2023-01-11T13:24:10.855Z,76.00
2023-01-11T13:26:47.652Z,75.60
2023-01-11T13:29:29.270Z,77.80
2023-01-11T13:32:00.877Z,80.80
2023-01-11T13:34:47.706Z,80.00
2023-01-11T13:37:42.768Z,77.20
2023-01-11T13:40:33.060Z,79.40
2023-01-11T13:43:16.061Z,75.20
2023-01-11T13:45:50.420Z,80.90
2023-01-11T13:48:31.605Z,81.30
2023-01-11T13:51:26.135Z,80.00
2023-01-11T13:54:05.228Z,79.40
2023-01-11T13:56:42.952Z,76.80
2023-01-11T13:59:31.435Z,77.40
2023-01-11T14:02:14.089Z,78.50
2023-01-11T14:04:54.559Z,79.80
2023-01-11T14:07:29.827Z,78.70
2023-01-11T14:10:17.941Z,80.90
2023-01-11T14:13:11.483Z,77.70
2023-01-11T14:16:06.386Z,76.50
2023-01-11T14:18:59.114Z,81.30
2023-01-11T14:21:42.036Z,80.00
2023-01-11T14:24:11.493Z,78.90
2023-01-11T14:27:11.352Z,81.20
2023-01-11T14:29:55.425Z,76.10
2023-01-11T14:32:47.985Z,77.50
2023-01-11T14:35:56.830Z,80.50
2023-01-11T14:38:50.250Z,78.40
2023-01-11T14:41:58.470Z,77.60
2023-01-11T14:44:53.186Z,77.50
2023-01-11T14:47:41.258Z,78.10
2023-01-11T14:50:22.534Z,79.20
2023-01-11T14:52:52.733Z,78.10
2023-01-11T14:55:25.770Z,80.30
2023-01-11T14:57:55.629Z,80.20
2023-01-11T15:00:22.430Z,80.80
2023-01-11T15:02:59.750Z,81.00
2023-01-11T15:05:29.720Z,80.60
2023-01-11T15:08:14.544Z,81.30
2023-01-11T15:10:59.118Z,80.40
2023-01-11T15:13:32.573Z,80.80
2023-01-11T15:16:41.578Z,82.50
2023-01-11T15:19:25.798Z,81.60
2023-01-11T15:21:56.229Z,83.30
2023-01-11T15:24:31.248Z,83.70
2023-01-11T15:27:01.416Z,83.70
2023-01-11T15:29:42.901Z,84.20
2023-01-11T15:32:33.381Z,83.60
2023-01-11T15:35:35.317Z,83.50
2023-01-11T15:38:43.997Z,82.60
2023-01-11T15:41:36.857Z,83.60
2023-01-11T15:44:45.959Z,84.80
2023-01-11T15:47:30.635Z,84.00
2023-01-11T15:50:21.561Z,84.10
2023-01-11T15:53:19.423Z,84.40
2023-01-11T15:56:32.217Z,83.10
2023-01-11T15:59:38.870Z,84.20
2023-01-11T16:02:44.485Z,83.70
2023-01-11T16:05:27.780Z,83.90
2023-01-11T16:08:31.470Z,84.60
2023-01-11T16:11:37.549Z,85.00
2023-01-11T16:15:01.862Z,84.60
2023-01-11T16:17:29.376Z,84.20
2023-01-11T16:19:57.046Z,85.70
2023-01-11T16:22:27.939Z,85.80
2023-01-11T16:25:01.400Z,86.30
2023-01-11T16:27:33.340Z,83.70
2023-01-11T16:30:01.384Z,85.90
2023-01-11T16:32:34.186Z,86.10
2023-01-11T16:35:03.596Z,86.10
2023-01-11T16:37:41.833Z,86.30
2023-01-11T16:40:35.946Z,86.00
2023-01-11T16:43:20.988Z,84.80
2023-01-11T16:45:56.716Z,85.90
2023-01-11T16:48:29.889Z,85.90
2023-01-11T16:51:19.374Z,86.20
2023-01-11T16:53:58.136Z,85.40
2023-01-11T16:56:25.295Z,85.80
2023-01-11T16:59:15.239Z,86.40
2023-01-11T17:01:55.925Z,85.40
2023-01-11T17:04:30.171Z,85.80
2023-01-11T17:07:12.934Z,86.20
2023-01-11T17:09:42.531Z,86.60
2023-01-11T17:12:17.046Z,86.80
2023-01-11T17:14:49.611Z,84.80
2023-01-11T17:17:17.115Z,86.60
2023-01-11T17:19:47.946Z,86.80
2023-01-11T17:22:24.962Z,86.80
2023-01-11T17:25:08.500Z,86.80
2023-01-11T17:27:45.088Z,86.30
2023-01-11T17:30:24.596Z,86.80
2023-01-11T17:32:55.306Z,86.80
2023-01-11T17:35:28.027Z,87.20
2023-01-11T17:37:58.978Z,87.30
2023-01-11T17:40:36.651Z,87.30
2023-01-11T17:43:39.351Z,87.70
2023-01-11T17:46:07.926Z,87.20
2023-01-11T17:48:35.241Z,87.40
2023-01-11T17:51:05.614Z,87.40
2023-01-11T17:53:38.821Z,87.40
2023-01-11T17:56:50.730Z,88.00
2023-01-11T17:59:29.207Z,86.50
2023-01-11T18:02:14.250Z,87.10
2023-01-11T18:04:44.572Z,87.40
2023-01-11T18:07:19.840Z,87.90
2023-01-11T18:09:58.468Z,87.60
2023-01-11T18:12:33.553Z,87.80
2023-01-11T18:15:04.644Z,87.80
2023-01-11T18:17:38.957Z,88.10
2023-01-11T18:20:15.200Z,87.90
2023-01-11T18:22:58.838Z,87.50
2023-01-11T18:25:28.916Z,87.70
2023-01-11T18:28:17.586Z,87.10
2023-01-11T18:30:58.274Z,86.00
2023-01-11T18:33:29.733Z,85.80
2023-01-11T18:36:03.674Z,86.20
2023-01-11T18:38:36.241Z,86.10
2023-01-11T18:41:28.360Z,85.90
2023-01-11T18:43:55.821Z,85.40
2023-01-11T18:46:22.953Z,85.90
2023-01-11T18:48:50.037Z,86.00
2023-01-11T18:51:26.944Z,86.10
2023-01-11T18:53:53.770Z,86.10
2023-01-11T18:56:20.720Z,86.40
2023-01-11T18:58:47.534Z,86.50
2023-01-11T19:01:14.550Z,86.60
2023-01-11T19:03:42.792Z,86.70
2023-01-11T19:06:13.174Z,86.70
2023-01-11T19:08:40.137Z,86.50
2023-01-11T19:11:07.037Z,86.50
2023-01-11T19:13:33.897Z,86.40
2023-01-11T19:16:01.738Z,86.30
2023-01-11T19:18:29.320Z,86.20
2023-01-11T19:21:02.504Z,86.10
2023-01-11T19:23:29.679Z,85.60
2023-01-11T19:26:02.045Z,86.10
2023-01-11T19:28:29.950Z,86.00
2023-01-11T19:30:56.978Z,86.50
2023-01-11T19:33:24.533Z,86.80
2023-01-11T19:35:51.445Z,87.00
2023-01-11T19:38:19.972Z,87.30
2023-01-11T19:40:50.446Z,87.40
2023-01-11T19:43:17.694Z,87.70
2023-01-11T19:45:44.701Z,85.20
2023-01-11T19:48:12.358Z,87.70
2023-01-11T19:50:39.213Z,87.80
2023-01-11T19:53:06.083Z,87.90
2023-01-11T19:55:32.847Z,88.10
2023-01-11T19:57:59.824Z,88.20
2023-01-11T20:00:26.678Z,88.20
2023-01-11T20:02:53.614Z,88.30
2023-01-11T20:05:20.576Z,88.30
2023-01-11T20:07:47.498Z,88.30
2023-01-11T20:10:14.351Z,88.30
2023-01-11T20:12:41.289Z,88.40
2023-01-11T20:15:08.796Z,88.30
2023-01-11T20:17:37.772Z,88.30
2023-01-11T20:20:07.063Z,88.30
2023-01-11T20:22:34.021Z,88.20
2023-01-11T20:25:00.971Z,88.10
2023-01-11T20:27:28.366Z,87.90
2023-01-11T20:29:55.232Z,87.90
2023-01-11T20:32:40.170Z,87.80
2023-01-11T20:35:09.552Z,87.90
2023-01-11T20:37:36.648Z,87.90
2023-01-11T20:40:03.858Z,88.00
2023-01-11T20:42:31.379Z,87.90
2023-01-11T20:44:58.180Z,88.50
2023-01-11T20:47:25.327Z,87.90
2023-01-11T20:49:52.264Z,87.90
2023-01-11T20:52:19.199Z,87.70
2023-01-11T20:54:46.054Z,87.70
2023-01-11T20:57:13.043Z,87.70
2023-01-11T20:59:39.932Z,87.60
2023-01-11T21:02:07.730Z,87.60
2023-01-11T21:04:35.746Z,87.70
2023-01-11T21:07:02.794Z,87.70
2023-01-11T21:09:29.872Z,87.60
2023-01-11T21:11:56.850Z,87.50
2023-01-11T21:14:23.902Z,87.40
2023-01-11T21:16:50.935Z,87.40
2023-01-11T21:19:17.864Z,87.30
2023-01-11T21:21:45.164Z,87.40
2023-01-11T21:24:15.126Z,87.40
2023-01-11T21:26:43.620Z,87.80
2023-01-11T21:29:11.915Z,87.40
2023-01-11T21:31:39.955Z,87.40
2023-01-11T21:34:08.106Z,87.30
2023-01-11T21:36:35.575Z,87.40
2023-01-11T21:39:03.355Z,87.40
2023-01-11T21:41:51.531Z,87.40
2023-01-11T21:44:20.367Z,87.50
2023-01-11T21:46:48.050Z,87.50
2023-01-11T21:49:16.257Z,87.50
2023-01-11T21:51:43.734Z,87.60
2023-01-11T21:54:14.090Z,87.50
2023-01-11T21:56:41.955Z,87.40
2023-01-11T21:59:09.159Z,87.30
2023-01-11T22:01:37.094Z,87.40
2023-01-11T22:04:14.425Z,87.40
2023-01-11T22:06:47.285Z,86.50
2023-01-11T22:09:14.387Z,87.30
2023-01-11T22:11:41.193Z,87.40
2023-01-11T22:14:08.794Z,87.50
2023-01-11T22:16:37.293Z,87.50
2023-01-11T22:19:07.616Z,87.40
2023-01-11T22:21:35.998Z,87.40
2023-01-11T22:24:04.739Z,87.40
2023-01-11T22:26:33.674Z,87.30
2023-01-11T22:29:14.589Z,87.30
2023-01-11T22:31:55.007Z,87.40
2023-01-11T22:34:23.190Z,85.00
2023-01-11T22:36:50.197Z,87.20
2023-01-11T22:39:19.515Z,87.30
2023-01-11T22:41:48.670Z,87.30
2023-01-11T22:44:16.216Z,87.30
2023-01-11T22:46:43.902Z,87.40
2023-01-11T22:49:11.816Z,87.40
2023-01-11T22:51:40.348Z,87.30
2023-01-11T22:54:07.210Z,87.20
2023-01-11T22:56:34.290Z,87.10
2023-01-11T22:59:01.223Z,87.10
2023-01-11T23:01:34.947Z,87.00
2023-01-11T23:04:02.763Z,86.60
2023-01-11T23:06:33.193Z,86.20
2023-01-11T23:09:01.062Z,85.80
2023-01-11T23:11:54.158Z,86.00
2023-01-11T23:14:21.981Z,86.00
2023-01-11T23:16:50.384Z,86.20
2023-01-11T23:19:20.133Z,86.30
2023-01-11T23:21:47.991Z,86.50
2023-01-11T23:24:16.836Z,86.40
2023-01-11T23:26:45.250Z,86.40
2023-01-11T23:29:12.797Z,86.30
2023-01-11T23:31:39.929Z,86.40
2023-01-11T23:34:08.382Z,86.50
2023-01-11T23:36:39.430Z,86.60
2023-01-11T23:39:10.400Z,86.60
2023-01-11T23:41:55.641Z,86.60
2023-01-11T23:44:22.904Z,86.70
2023-01-11T23:47:09.626Z,86.90
2023-01-11T23:49:36.825Z,86.90
2023-01-11T23:52:03.927Z,86.90
2023-01-11T23:54:33.666Z,87.00
2023-01-11T23:57:03.107Z,86.90
2023-01-11T23:59:30.374Z,86.80
